KATW/ATW METAR and TAF weather

Enter ICAO airport designator
Station Type Date Time Source
KATW METAR 2020/04/06 17:45 UTC NOAA

KATW 061745Z VRB04KT 10SM SCT050 BKN080 11/M12 A3001


Station Type Date Time Source
KATW Decoded METAR 2020/04/06 17:45 UTC NOAA

Appleton / Outagamie, WI, United States (KATW) 44-15N 088-31W
Apr 06, 2020 - 01:45 PM EDT / 2020.04.06 1745 UTC
Wind: Variable at 5 MPH (4 KT):0
Visibility: 10 mile(s):0
Sky conditions: mostly cloudy
Temperature: 51 F (11 C)
Dew Point: 10 F (-12 C)
Relative Humidity: 18%
Pressure (altimeter): 30.01 in. Hg (1016 hPa)
ob: KATW 061745Z VRB04KT 10SM SCT050 BKN080 11/M12 A3001
cycle: 18

Station Type Date Time Source
KATW TAF 2020/04/06 18:48 UTC NOAA

TAF KATW 061745Z 0618/0718 14007KT P6SM SCT060 SCT120
FM062000 11006KT P6SM BKN060
FM070000 12004KT P6SM OVC022
FM070400 11003KT P6SM OVC010
FM070900 13004KT 4SM -SHRA BR OVC005
FM071700 17007KT 6SM -SHRA OVC010

Example: see airport list